createdAt,value
2022-08-05T00:01:28.444Z,2.30
2022-08-05T00:03:56.998Z,2.35
2022-08-05T00:06:32.302Z,3.00
2022-08-05T00:09:00.695Z,3.38
2022-08-05T00:11:30.609Z,3.00
2022-08-05T00:14:02.210Z,3.72
2022-08-05T00:16:36.484Z,2.90
2022-08-05T00:19:15.930Z,3.22
2022-08-05T00:21:42.813Z,2.90
2022-08-05T00:24:10.898Z,4.20
2022-08-05T00:26:38.568Z,3.55
2022-08-05T00:29:05.367Z,2.80
2022-08-05T00:31:54.474Z,4.97
2022-08-05T00:34:55.423Z,2.80
2022-08-05T00:37:12.709Z,2.72
2022-08-05T00:39:44.455Z,2.15
2022-08-05T00:42:35.501Z,3.03
2022-08-05T00:45:04.725Z,3.75
2022-08-05T00:47:57.299Z,2.63
2022-08-05T00:50:25.087Z,2.25
2022-08-05T00:52:53.369Z,2.50
2022-08-05T00:55:22.258Z,2.13
2022-08-05T00:57:55.483Z,2.42
2022-08-05T01:00:26.392Z,2.80
2022-08-05T01:02:53.278Z,2.63
2022-08-05T01:05:20.219Z,3.42
2022-08-05T01:08:39.226Z,2.47
2022-08-05T01:11:11.527Z,4.57
2022-08-05T01:13:58.511Z,3.92
2022-08-05T01:16:33.884Z,2.85
2022-08-05T01:19:06.579Z,2.40
2022-08-05T01:21:58.263Z,2.60
2022-08-05T01:24:47.916Z,2.63
2022-08-05T01:27:55.184Z,2.88
2022-08-05T01:30:34.121Z,2.80
2022-08-05T01:33:02.978Z,2.70
2022-08-05T01:35:51.638Z,3.30
2022-08-05T01:38:27.382Z,3.50
2022-08-05T01:41:00.117Z,2.33
2022-08-05T01:43:28.777Z,2.08
2022-08-05T01:45:56.593Z,2.22
2022-08-05T01:48:25.393Z,2.83
2022-08-05T01:50:53.670Z,3.50
2022-08-05T01:53:55.128Z,2.92
2022-08-05T01:56:08.901Z,3.65
2022-08-05T01:58:45.136Z,2.42
2022-08-05T02:01:13.461Z,2.38
2022-08-05T02:03:43.885Z,2.40
2022-08-05T02:06:33.807Z,2.42
2022-08-05T02:08:58.409Z,2.10
2022-08-05T02:11:33.234Z,2.80
2022-08-05T02:14:05.917Z,2.60
2022-08-05T02:16:53.249Z,1.98
2022-08-05T02:19:35.048Z,2.78
2022-08-05T02:22:03.080Z,2.30
2022-08-05T02:24:34.377Z,2.50
2022-08-05T02:27:09.118Z,1.83
2022-08-05T02:29:58.574Z,4.40
2022-08-05T02:32:30.806Z,2.78
2022-08-05T02:35:13.344Z,2.13
2022-08-05T02:37:41.796Z,1.88
2022-08-05T02:40:09.577Z,1.88
2022-08-05T02:42:37.117Z,2.42
2022-08-05T02:45:04.568Z,2.75
2022-08-05T02:48:06.271Z,2.00
2022-08-05T02:50:18.938Z,4.32
2022-08-05T02:52:45.724Z,2.78
2022-08-05T02:55:12.480Z,2.10
2022-08-05T02:58:10.570Z,2.50
2022-08-05T03:00:27.175Z,2.08
2022-08-05T03:02:54.006Z,2.00
2022-08-05T03:05:21.826Z,1.95
2022-08-05T03:08:08.833Z,1.65
2022-08-05T03:10:36.329Z,1.70
2022-08-05T03:15:28.801Z,3.42
2022-08-05T03:17:57.529Z,2.08
2022-08-05T03:20:25.081Z,2.42
2022-08-05T03:22:53.176Z,2.53
2022-08-05T03:25:33.268Z,3.35
2022-08-05T03:28:13.918Z,2.22
2022-08-05T03:30:42.251Z,3.10
2022-08-05T03:33:09.235Z,3.35
2022-08-05T03:35:40.865Z,4.25
2022-08-05T03:38:12.012Z,2.40
2022-08-05T03:40:48.423Z,2.72
2022-08-05T03:44:08.433Z,2.53
2022-08-05T03:46:03.492Z,2.25
2022-08-05T03:48:30.587Z,2.63
2022-08-05T03:52:37.774Z,3.00
2022-08-05T03:55:33.980Z,2.50
2022-08-05T03:57:02.375Z,1.70
2022-08-05T03:59:56.338Z,2.25
2022-08-05T04:02:38.189Z,2.60
2022-08-05T04:05:12.561Z,2.65
2022-08-05T04:07:57.287Z,2.42
2022-08-05T04:10:27.942Z,1.80
2022-08-05T04:12:59.026Z,5.75
2022-08-05T04:15:27.760Z,2.63
2022-08-05T04:18:07.368Z,2.42
2022-08-05T04:20:36.779Z,2.55
2022-08-05T04:23:03.687Z,3.72
2022-08-05T04:25:57.714Z,15.38
2022-08-05T04:28:17.747Z,5.72
2022-08-05T04:30:45.384Z,7.00
2022-08-05T04:33:12.942Z,7.50
2022-08-05T04:36:16.212Z,8.18
2022-08-05T04:38:39.604Z,8.88
2022-08-05T04:41:09.324Z,13.40
2022-08-05T04:43:37.643Z,6.72
2022-08-05T04:46:07.413Z,8.60
2022-08-05T04:48:34.366Z,7.97
2022-08-05T04:51:11.027Z,6.82
2022-08-05T04:53:39.411Z,10.70
2022-08-05T04:56:32.642Z,8.23
2022-08-05T04:59:00.890Z,8.43
2022-08-05T05:02:07.155Z,8.60
2022-08-05T05:04:38.232Z,9.98
2022-08-05T05:07:09.368Z,6.18
2022-08-05T05:09:37.237Z,9.80
2022-08-05T05:12:06.424Z,7.72
2022-08-05T05:14:36.205Z,6.35
2022-08-05T05:17:03.694Z,7.05
2022-08-05T05:19:44.163Z,7.72
2022-08-05T05:22:23.713Z,7.22
2022-08-05T05:24:56.702Z,7.10
2022-08-05T05:27:41.506Z,6.72
2022-08-05T05:30:29.031Z,10.68
2022-08-05T05:33:00.658Z,7.70
2022-08-05T05:35:34.456Z,9.30
2022-08-05T05:38:08.972Z,8.40
2022-08-05T05:40:43.840Z,8.98
2022-08-05T05:43:27.679Z,5.30
2022-08-05T05:46:05.200Z,6.80
2022-08-05T05:48:34.664Z,8.80
2022-08-05T05:51:14.940Z,6.53
2022-08-05T05:53:54.111Z,7.15
2022-08-05T05:56:32.826Z,8.10
2022-08-05T05:59:06.716Z,5.75
2022-08-05T06:01:37.463Z,7.75
2022-08-05T06:04:11.523Z,9.63
2022-08-05T06:06:43.367Z,8.15
2022-08-05T06:09:17.485Z,7.30
2022-08-05T06:12:01.320Z,9.30
2022-08-05T06:14:33.425Z,9.10
2022-08-05T06:17:02.204Z,6.32
2022-08-05T06:19:56.576Z,8.00
2022-08-05T06:22:33.573Z,7.53
2022-08-05T06:25:00.936Z,6.53
2022-08-05T06:28:10.997Z,6.68
2022-08-05T06:30:17.717Z,11.90
2022-08-05T06:32:47.792Z,8.43
2022-08-05T06:35:21.893Z,7.88
2022-08-05T06:38:09.806Z,5.95
2022-08-05T06:40:42.034Z,7.97
2022-08-05T06:43:57.835Z,6.22
2022-08-05T06:46:06.808Z,7.32
2022-08-05T06:48:50.518Z,7.45
2022-08-05T06:51:29.352Z,7.28
2022-08-05T06:53:58.825Z,6.88
2022-08-05T06:56:27.113Z,7.55
2022-08-05T06:58:55.094Z,6.47
2022-08-05T07:01:22.669Z,7.72
2022-08-05T07:03:49.723Z,6.95
2022-08-05T07:06:17.460Z,6.90
2022-08-05T07:08:54.743Z,7.25
2022-08-05T07:11:22.427Z,6.95
2022-08-05T07:14:20.720Z,9.52
2022-08-05T07:17:59.876Z,6.38
2022-08-05T07:20:31.255Z,8.82
2022-08-05T07:22:34.657Z,10.27
2022-08-05T07:25:23.621Z,6.50
2022-08-05T07:27:57.792Z,7.43
2022-08-05T07:30:31.936Z,6.38
2022-08-05T07:33:01.427Z,8.30
2022-08-05T07:36:01.625Z,7.57
2022-08-05T07:38:33.847Z,7.10
2022-08-05T07:42:08.442Z,6.50
2022-08-05T07:43:52.221Z,9.15
2022-08-05T07:46:24.594Z,5.95
2022-08-05T07:49:02.346Z,5.45
2022-08-05T07:51:40.777Z,5.95
2022-08-05T07:54:15.590Z,5.30
2022-08-05T07:57:01.856Z,10.13
2022-08-05T07:59:38.825Z,7.10
2022-08-05T08:02:10.583Z,5.75
2022-08-05T08:04:43.107Z,5.60
2022-08-05T08:07:12.319Z,6.05
2022-08-05T08:09:39.160Z,6.60
2022-08-05T08:12:14.666Z,5.43
2022-08-05T08:14:47.130Z,6.50
2022-08-05T08:17:16.071Z,4.85
2022-08-05T08:20:21.080Z,6.53
2022-08-05T08:22:30.504Z,8.02
2022-08-05T08:25:02.706Z,8.73
2022-08-05T08:27:45.034Z,8.48
2022-08-05T08:30:29.810Z,6.78
2022-08-05T08:33:02.704Z,5.97
2022-08-05T08:35:35.163Z,6.60
2022-08-05T08:38:08.686Z,5.57
2022-08-05T08:40:45.702Z,6.13
2022-08-05T08:45:16.839Z,5.65
2022-08-05T08:46:06.230Z,7.53
2022-08-05T08:48:42.707Z,7.55
2022-08-05T08:52:02.001Z,7.45
2022-08-05T08:54:13.792Z,9.57
2022-08-05T08:56:47.638Z,6.72
2022-08-05T08:59:19.646Z,7.25
2022-08-05T09:01:57.563Z,9.88
2022-08-05T09:04:30.666Z,8.07
2022-08-05T09:06:58.462Z,8.77
2022-08-05T09:09:34.882Z,7.05
2022-08-05T09:12:20.235Z,9.82
2022-08-05T09:14:58.065Z,8.63
2022-08-05T09:17:41.243Z,6.90
2022-08-05T09:20:11.060Z,9.80
2022-08-05T09:23:07.882Z,7.00
2022-08-05T09:26:03.326Z,8.75
2022-08-05T09:28:32.564Z,7.03
2022-08-05T09:31:44.060Z,7.53
2022-08-05T09:34:02.925Z,6.78
2022-08-05T09:36:55.158Z,8.65
2022-08-05T09:39:39.380Z,7.88
2022-08-05T09:42:17.208Z,8.00
2022-08-05T09:44:50.478Z,8.25
2022-08-05T09:47:22.471Z,7.47
2022-08-05T09:50:02.381Z,8.32
2022-08-05T09:52:34.407Z,7.82
2022-08-05T09:55:56.420Z,7.20
2022-08-05T09:57:54.554Z,8.32
2022-08-05T10:00:26.746Z,6.90
2022-08-05T10:02:58.284Z,6.10
2022-08-05T10:05:27.837Z,6.85
2022-08-05T10:08:36.632Z,9.38
2022-08-05T10:10:45.362Z,9.93
2022-08-05T10:13:31.603Z,11.38
2022-08-05T10:16:00.476Z,9.27
2022-08-05T10:18:31.964Z,7.70
2022-08-05T10:21:11.881Z,8.55
2022-08-05T10:23:58.858Z,11.13
2022-08-05T10:26:31.644Z,6.68
2022-08-05T10:28:59.839Z,10.75
2022-08-05T10:32:52.974Z,9.63
2022-08-05T10:34:13.826Z,8.07
2022-08-05T10:36:41.689Z,8.27
2022-08-05T10:39:59.456Z,9.57
2022-08-05T10:42:33.873Z,6.53
2022-08-05T10:45:01.249Z,5.95
2022-08-05T10:47:32.916Z,9.50
2022-08-05T10:50:32.175Z,6.10
2022-08-05T10:52:58.738Z,7.00
2022-08-05T10:55:26.821Z,5.55
2022-08-05T10:58:11.432Z,8.27
2022-08-05T11:00:42.197Z,9.35
2022-08-05T11:03:24.834Z,9.45
2022-08-05T11:06:08.284Z,7.85
2022-08-05T11:08:37.234Z,7.50
2022-08-05T11:11:52.836Z,6.78
2022-08-05T11:14:56.296Z,6.55
2022-08-05T11:17:59.321Z,6.65
2022-08-05T11:20:43.835Z,7.20
2022-08-05T11:23:33.167Z,8.10
2022-08-05T11:26:10.675Z,6.82
2022-08-05T11:28:44.163Z,6.57
2022-08-05T11:31:10.926Z,5.63
2022-08-05T11:33:48.116Z,7.25
2022-08-05T11:36:34.221Z,8.35
2022-08-05T11:39:04.343Z,6.90
2022-08-05T11:41:58.175Z,7.80
2022-08-05T11:44:40.736Z,9.05
2022-08-05T11:47:10.974Z,7.38
2022-08-05T11:49:42.833Z,7.25
2022-08-05T11:52:11.342Z,7.72
2022-08-05T11:54:40.633Z,8.93
2022-08-05T11:57:25.943Z,8.43
2022-08-05T11:59:54.299Z,6.32
2022-08-05T12:02:31.950Z,11.35
2022-08-05T12:05:07.203Z,6.25
2022-08-05T12:08:09.013Z,10.68
2022-08-05T12:10:38.621Z,6.88
2022-08-05T12:13:16.328Z,7.75
2022-08-05T12:15:49.702Z,8.18
2022-08-05T12:18:32.645Z,5.55
2022-08-05T12:21:10.822Z,6.18
2022-08-05T12:23:43.130Z,6.38
2022-08-05T12:26:10.217Z,5.80
2022-08-05T12:28:37.877Z,5.32
2022-08-05T12:31:05.649Z,8.80
2022-08-05T12:33:36.334Z,5.10
2022-08-05T12:36:08.079Z,4.63
2022-08-05T12:38:37.728Z,6.05
2022-08-05T12:41:13.107Z,5.85
2022-08-05T12:43:56.363Z,5.05
2022-08-05T12:46:28.963Z,8.35
2022-08-05T12:49:13.256Z,4.95
2022-08-05T12:52:13.788Z,6.32
2022-08-05T12:54:37.161Z,6.28
2022-08-05T12:57:17.998Z,6.32
2022-08-05T13:01:58.334Z,4.85
2022-08-05T13:02:35.844Z,6.32
2022-08-05T13:05:06.188Z,5.47
2022-08-05T13:08:00.229Z,5.13
2022-08-05T13:10:20.493Z,6.00
2022-08-05T13:12:57.141Z,4.38
2022-08-05T13:15:42.131Z,5.70
2022-08-05T13:18:18.754Z,5.05
2022-08-05T13:20:47.460Z,5.50
2022-08-05T13:23:18.323Z,4.40
2022-08-05T13:25:52.172Z,4.90
2022-08-05T13:28:26.706Z,7.50
2022-08-05T13:30:53.727Z,4.57
2022-08-05T13:34:24.102Z,6.50
2022-08-05T13:36:09.250Z,3.72
2022-08-05T13:38:42.179Z,4.10
2022-08-05T13:41:11.441Z,4.95
2022-08-05T13:43:45.581Z,5.18
2022-08-05T13:46:38.058Z,6.30
2022-08-05T13:49:12.883Z,5.13
2022-08-05T13:51:41.482Z,5.53
2022-08-05T13:54:12.406Z,4.80
2022-08-05T13:56:45.093Z,3.80
2022-08-05T13:59:24.467Z,5.05
2022-08-05T14:01:58.285Z,4.40
2022-08-05T14:04:49.844Z,3.97
2022-08-05T14:07:55.718Z,5.25
2022-08-05T14:10:13.626Z,4.55
2022-08-05T14:12:48.778Z,4.68
2022-08-05T14:16:07.314Z,4.40
2022-08-05T14:18:04.086Z,8.70
2022-08-05T14:20:32.007Z,7.82
2022-08-05T14:22:59.787Z,6.45
2022-08-05T14:25:28.181Z,7.97
2022-08-05T14:27:56.740Z,8.38
2022-08-05T14:30:27.869Z,6.03
2022-08-05T14:32:56.694Z,7.28
2022-08-05T14:35:36.988Z,7.82
2022-08-05T14:38:04.645Z,7.63
2022-08-05T14:40:31.747Z,7.78
2022-08-05T14:43:01.089Z,7.80
2022-08-05T14:45:28.309Z,8.63
2022-08-05T14:48:05.275Z,6.13
2022-08-05T14:50:39.754Z,6.38
2022-08-05T14:53:07.647Z,7.80
2022-08-05T14:55:39.606Z,8.50
2022-08-05T14:58:10.888Z,5.63
2022-08-05T15:00:38.396Z,5.93
2022-08-05T15:03:09.510Z,7.45
2022-08-05T15:06:12.753Z,9.43
2022-08-05T15:08:58.035Z,9.27
2022-08-05T15:11:10.426Z,9.45
2022-08-05T15:13:46.593Z,9.23
2022-08-05T15:16:17.183Z,7.38
2022-08-05T15:18:43.982Z,9.70
2022-08-05T15:21:14.075Z,6.20
2022-08-05T15:23:40.841Z,7.75
2022-08-05T15:26:07.633Z,6.53
2022-08-05T15:28:35.605Z,7.53
2022-08-05T15:31:10.067Z,6.55
2022-08-05T15:34:05.630Z,7.18
2022-08-05T15:36:25.857Z,6.47
2022-08-05T15:40:41.585Z,8.98
2022-08-05T15:41:55.985Z,9.55
2022-08-05T15:44:27.835Z,8.32
2022-08-05T15:46:55.915Z,6.82
2022-08-05T15:49:40.921Z,8.52
2022-08-05T15:52:16.144Z,5.63
2022-08-05T15:54:44.094Z,6.57
2022-08-05T15:57:11.258Z,7.30
2022-08-05T15:59:39.458Z,7.18
2022-08-05T16:02:09.794Z,5.55
2022-08-05T16:04:42.669Z,8.02
2022-08-05T16:07:10.706Z,5.88
2022-08-05T16:09:37.799Z,7.00
2022-08-05T16:12:08.936Z,9.05
2022-08-05T16:14:36.095Z,13.25
2022-08-05T16:17:03.666Z,7.00
2022-08-05T16:20:03.023Z,17.35
2022-08-05T16:22:17.900Z,6.60
2022-08-05T16:24:52.177Z,6.75
2022-08-05T16:27:19.178Z,6.68
2022-08-05T16:29:59.143Z,7.85
2022-08-05T16:32:29.194Z,6.22
2022-08-05T16:34:57.675Z,10.95
2022-08-05T16:38:16.429Z,7.75
2022-08-05T16:40:20.187Z,8.52
2022-08-05T16:42:53.657Z,7.65
2022-08-05T16:46:05.334Z,6.43
2022-08-05T16:48:07.228Z,8.93
2022-08-05T16:50:37.817Z,7.57
2022-08-05T16:53:12.568Z,5.93
2022-08-05T16:55:50.224Z,5.53
2022-08-05T16:58:19.729Z,6.10
2022-08-05T17:00:48.118Z,4.60
2022-08-05T17:03:20.057Z,4.78
2022-08-05T17:05:53.651Z,6.55
2022-08-05T17:08:36.147Z,5.45
2022-08-05T17:11:12.791Z,5.53
2022-08-05T17:13:44.578Z,6.18
2022-08-05T17:16:32.932Z,4.28
2022-08-05T17:18:58.799Z,4.40
2022-08-05T17:21:26.288Z,5.95
2022-08-05T17:24:18.385Z,5.68
2022-08-05T17:26:52.364Z,7.05
2022-08-05T17:29:22.490Z,8.00
2022-08-05T17:31:59.527Z,5.28
2022-08-05T17:34:30.166Z,4.70
2022-08-05T17:37:00.311Z,5.93
2022-08-05T17:39:33.441Z,5.28
2022-08-05T17:42:18.473Z,5.00
2022-08-05T17:44:50.500Z,4.47
2022-08-05T17:47:22.893Z,4.63
2022-08-05T17:50:00.270Z,4.78
2022-08-05T17:52:34.707Z,6.72
2022-08-05T17:55:21.124Z,6.82
2022-08-05T17:57:50.059Z,5.47
2022-08-05T18:00:17.506Z,6.75
2022-08-05T18:02:47.231Z,5.20
2022-08-05T18:05:16.939Z,6.82
2022-08-05T18:07:44.697Z,4.78
2022-08-05T18:10:20.336Z,5.43
2022-08-05T18:12:48.817Z,7.35
2022-08-05T18:15:15.788Z,5.32
2022-08-05T18:18:00.988Z,6.72
2022-08-05T18:20:31.746Z,5.65
2022-08-05T18:23:00.770Z,4.85
2022-08-05T18:25:35.836Z,6.68
2022-08-05T18:28:05.137Z,7.55
2022-08-05T18:30:33.548Z,8.20
2022-08-05T18:33:01.036Z,5.72
2022-08-05T18:36:00.043Z,9.82
2022-08-05T18:38:19.300Z,7.10
2022-08-05T18:41:57.518Z,8.63
2022-08-05T18:43:42.964Z,7.93
2022-08-05T18:46:20.315Z,6.32
2022-08-05T18:48:51.988Z,7.65
2022-08-05T18:52:05.024Z,7.45
2022-08-05T18:54:31.471Z,8.77
2022-08-05T18:56:59.926Z,5.90
2022-08-05T18:59:43.808Z,8.57
2022-08-05T19:02:27.446Z,8.32
2022-08-05T19:05:02.193Z,5.40
2022-08-05T19:07:45.871Z,8.60
2022-08-05T19:10:13.846Z,5.90
2022-08-05T19:12:40.678Z,5.63
2022-08-05T19:15:25.057Z,8.38
2022-08-05T19:18:10.065Z,7.50
2022-08-05T19:20:41.600Z,11.05
2022-08-05T19:24:03.878Z,6.82
2022-08-05T19:26:03.918Z,8.40
2022-08-05T19:28:31.200Z,6.07
2022-08-05T19:31:00.857Z,7.28
2022-08-05T19:33:35.733Z,4.95
2022-08-05T19:36:07.063Z,6.93
2022-08-05T19:38:35.864Z,8.98
2022-08-05T19:41:07.142Z,6.80
2022-08-05T19:44:05.506Z,6.38
2022-08-05T19:46:30.144Z,6.65
2022-08-05T19:49:03.319Z,5.95
2022-08-05T19:52:09.261Z,8.55
2022-08-05T19:54:27.107Z,9.13
2022-08-05T19:57:06.839Z,12.48
2022-08-05T19:59:54.764Z,4.63
2022-08-05T20:02:23.099Z,5.63
2022-08-05T20:04:50.060Z,5.40
2022-08-05T20:07:47.122Z,6.65
2022-08-05T20:10:13.463Z,7.78
2022-08-05T20:12:47.597Z,8.13
2022-08-05T20:15:48.691Z,7.80
2022-08-05T20:18:10.430Z,4.00
2022-08-05T20:20:51.393Z,4.13
2022-08-05T20:23:22.270Z,5.15
2022-08-05T20:25:49.227Z,6.40
2022-08-05T20:28:19.234Z,10.43
2022-08-05T20:30:46.135Z,9.38
2022-08-05T20:33:14.915Z,7.60
2022-08-05T20:35:45.591Z,8.40
2022-08-05T20:38:20.273Z,8.20
2022-08-05T20:40:55.509Z,6.20
2022-08-05T20:43:33.350Z,4.53
2022-08-05T20:46:18.231Z,9.63
2022-08-05T20:48:45.544Z,9.90
2022-08-05T20:51:22.787Z,4.93
2022-08-05T20:53:55.113Z,6.28
2022-08-05T20:56:29.867Z,7.05
2022-08-05T20:59:11.372Z,5.20
2022-08-05T21:01:45.754Z,7.80
2022-08-05T21:04:12.657Z,4.88
2022-08-05T21:06:45.775Z,4.70
2022-08-05T21:09:14.331Z,6.65
2022-08-05T21:12:10.491Z,8.82
2022-08-05T21:14:34.583Z,4.70
2022-08-05T21:17:03.115Z,7.07
2022-08-05T21:19:47.159Z,5.10
2022-08-05T21:22:18.370Z,6.95
2022-08-05T21:24:48.861Z,5.93
2022-08-05T21:27:18.748Z,6.75
2022-08-05T21:29:48.487Z,6.63
2022-08-05T21:32:19.850Z,4.35
2022-08-05T21:34:55.796Z,7.03
2022-08-05T21:37:33.540Z,4.53
2022-08-05T21:40:06.447Z,6.35
2022-08-05T21:42:44.325Z,5.70
2022-08-05T21:45:13.611Z,6.80
2022-08-05T21:47:56.846Z,8.18
2022-08-05T21:50:25.800Z,5.05
2022-08-05T21:52:52.867Z,5.38
2022-08-05T21:55:42.683Z,5.10
2022-08-05T21:58:06.851Z,4.88
2022-08-05T22:00:37.289Z,3.97
2022-08-05T22:03:04.081Z,6.75
2022-08-05T22:05:48.124Z,6.45
2022-08-05T22:08:22.186Z,4.10
2022-08-05T22:10:50.925Z,4.13
2022-08-05T22:14:06.192Z,3.50
2022-08-05T22:16:15.765Z,3.83
2022-08-05T22:18:52.508Z,4.78
2022-08-05T22:21:20.083Z,6.20
2022-08-05T22:24:09.037Z,4.80
2022-08-05T22:27:14.060Z,6.05
2022-08-05T22:29:44.152Z,4.95
2022-08-05T22:32:12.763Z,4.95
2022-08-05T22:34:44.407Z,3.70
2022-08-05T22:37:12.650Z,3.85
2022-08-05T22:39:39.692Z,3.25
2022-08-05T22:42:11.044Z,8.02
2022-08-05T22:44:40.140Z,4.03
2022-08-05T22:47:07.093Z,3.42
2022-08-05T22:50:20.285Z,4.85
2022-08-05T22:52:32.475Z,5.47
2022-08-05T22:55:01.538Z,6.07
2022-08-05T22:57:36.366Z,3.40
2022-08-05T23:00:06.174Z,3.50
2022-08-05T23:02:35.283Z,4.85
2022-08-05T23:05:13.597Z,5.47
2022-08-05T23:07:48.586Z,6.88
2022-08-05T23:10:19.976Z,3.63
2022-08-05T23:12:51.464Z,3.53
2022-08-05T23:15:22.531Z,4.50
2022-08-05T23:18:00.996Z,4.38
2022-08-05T23:20:29.891Z,3.55
2022-08-05T23:22:58.678Z,2.78
2022-08-05T23:25:53.470Z,2.72
2022-08-05T23:28:12.996Z,4.13
2022-08-05T23:30:44.045Z,4.38
2022-08-05T23:33:25.592Z,3.88
2022-08-05T23:35:56.188Z,4.05
2022-08-05T23:38:24.247Z,2.92
2022-08-05T23:40:52.876Z,3.65
2022-08-05T23:43:25.779Z,3.85
2022-08-05T23:46:20.579Z,3.78
2022-08-05T23:48:59.731Z,5.43
2022-08-05T23:51:53.363Z,3.35
2022-08-05T23:54:26.611Z,1.90
2022-08-05T23:57:03.675Z,4.18
